createdAt,value
2022-11-24T00:02:41.081Z,70.86
2022-11-24T00:05:45.817Z,70.59
2022-11-24T00:08:47.668Z,70.81
2022-11-24T00:11:49.269Z,70.93
2022-11-24T00:14:51.003Z,70.78
2022-11-24T00:17:52.740Z,70.88
2022-11-24T00:20:54.374Z,70.84
2022-11-24T00:23:56.823Z,70.95
2022-11-24T00:26:58.408Z,70.74
2022-11-24T00:30:00.135Z,70.94
2022-11-24T00:33:01.776Z,70.75
2022-11-24T00:36:03.554Z,71.11
2022-11-24T00:39:15.295Z,70.72
2022-11-24T00:42:18.014Z,70.85
2022-11-24T00:45:19.746Z,70.83
2022-11-24T00:48:22.272Z,71.09
2022-11-24T00:51:27.317Z,71.04
2022-11-24T00:54:28.933Z,70.89
2022-11-24T00:57:30.586Z,71.23
2022-11-24T01:00:32.280Z,70.89
2022-11-24T01:03:34.168Z,71.11
2022-11-24T01:06:42.912Z,71.13
2022-11-24T01:09:45.321Z,70.87
2022-11-24T01:12:50.982Z,71.03
2022-11-24T01:15:52.820Z,71.11
2022-11-24T01:18:55.608Z,71.00
2022-11-24T01:21:57.231Z,70.92
2022-11-24T01:24:58.879Z,71.06
2022-11-24T01:28:09.616Z,70.96
2022-11-24T01:31:15.050Z,71.00
2022-11-24T01:34:16.919Z,71.14
2022-11-24T01:37:18.645Z,71.04
2022-11-24T01:40:20.457Z,70.90
2022-11-24T01:43:22.088Z,71.02
2022-11-24T01:46:31.899Z,71.11
2022-11-24T01:49:47.452Z,71.11
2022-11-24T01:52:55.068Z,71.21
2022-11-24T01:55:57.486Z,71.03
2022-11-24T01:59:02.337Z,71.21
2022-11-24T02:02:04.266Z,71.30
2022-11-24T02:05:12.910Z,71.22
2022-11-24T02:08:25.493Z,71.15
2022-11-24T02:11:28.803Z,71.24
2022-11-24T02:14:30.533Z,71.37
2022-11-24T02:17:32.361Z,71.34
2022-11-24T02:20:34.039Z,71.40
2022-11-24T02:23:56.632Z,71.16
2022-11-24T02:26:58.463Z,71.33
2022-11-24T02:30:00.318Z,71.36
2022-11-24T02:33:02.384Z,71.32
2022-11-24T02:36:06.624Z,71.30
2022-11-24T02:39:15.682Z,71.28
2022-11-24T02:42:17.448Z,71.30
2022-11-24T02:45:20.459Z,71.34
2022-11-24T02:48:22.178Z,71.34
2022-11-24T02:51:23.870Z,71.36
2022-11-24T02:54:26.062Z,71.34
2022-11-24T02:57:27.642Z,71.45
2022-11-24T03:00:29.486Z,71.22
2022-11-24T03:03:31.379Z,71.34
2022-11-24T03:06:33.080Z,71.22
2022-11-24T03:09:34.937Z,71.29
2022-11-24T03:12:36.588Z,71.25
2022-11-24T03:15:38.246Z,71.34
2022-11-24T03:18:39.830Z,71.22
2022-11-24T03:21:41.656Z,71.20
2022-11-24T03:24:43.302Z,71.27
2022-11-24T03:27:54.012Z,71.40
2022-11-24T03:30:55.783Z,71.39
2022-11-24T03:33:57.476Z,71.18
2022-11-24T03:36:59.192Z,71.39
2022-11-24T03:40:00.900Z,71.37
2022-11-24T03:43:02.581Z,71.51
2022-11-24T03:46:04.720Z,71.34
2022-11-24T03:49:09.076Z,71.50
2022-11-24T03:52:10.665Z,71.41
2022-11-24T03:55:12.312Z,71.52
2022-11-24T03:58:14.013Z,71.34
2022-11-24T04:01:15.815Z,71.48
2022-11-24T04:04:17.464Z,71.54
2022-11-24T04:07:19.256Z,71.47
2022-11-24T04:10:20.950Z,71.27
2022-11-24T04:13:24.783Z,71.35
2022-11-24T04:16:26.567Z,71.58
2022-11-24T04:19:28.238Z,71.46
2022-11-24T04:22:30.091Z,71.51
2022-11-24T04:25:31.960Z,71.51
2022-11-24T04:28:33.630Z,71.49
2022-11-24T04:31:35.387Z,71.49
2022-11-24T04:34:37.079Z,71.59
2022-11-24T04:37:39.042Z,71.50
2022-11-24T04:40:40.653Z,71.51
2022-11-24T04:43:42.254Z,71.61
2022-11-24T04:46:44.003Z,71.44
2022-11-24T04:49:49.526Z,71.47
2022-11-24T04:52:51.982Z,71.63
2022-11-24T04:55:53.589Z,71.40
2022-11-24T04:58:56.810Z,71.60
2022-11-24T05:01:58.504Z,71.77
2022-11-24T05:05:00.225Z,71.59
2022-11-24T05:08:02.088Z,71.53
2022-11-24T05:11:09.840Z,71.53
2022-11-24T05:14:11.632Z,71.78
2022-11-24T05:17:13.238Z,71.66
2022-11-24T05:20:24.338Z,71.58
2022-11-24T05:23:26.638Z,71.58
2022-11-24T05:26:28.366Z,71.75
2022-11-24T05:29:29.962Z,71.58
2022-11-24T05:32:31.745Z,71.66
2022-11-24T05:35:34.883Z,71.70
2022-11-24T05:38:36.483Z,71.66
2022-11-24T05:41:38.109Z,71.84
2022-11-24T05:44:39.665Z,71.67
2022-11-24T05:47:42.350Z,71.72
2022-11-24T05:50:44.005Z,71.83
2022-11-24T05:53:48.722Z,71.70
2022-11-24T05:56:50.271Z,71.79
2022-11-24T05:59:51.815Z,71.82
2022-11-24T06:02:54.047Z,71.73
2022-11-24T06:05:55.849Z,72.04
2022-11-24T06:08:58.059Z,71.85
2022-11-24T06:11:59.604Z,71.91
2022-11-24T06:15:01.724Z,71.92
2022-11-24T06:18:03.433Z,71.86
2022-11-24T06:21:12.584Z,71.80
2022-11-24T06:24:14.187Z,71.84
2022-11-24T06:27:16.006Z,71.95
2022-11-24T06:30:17.745Z,71.86
2022-11-24T06:33:19.665Z,72.00
2022-11-24T06:36:21.567Z,71.86
2022-11-24T06:39:23.279Z,71.83
2022-11-24T06:42:24.969Z,71.96
2022-11-24T06:45:26.753Z,71.93
2022-11-24T06:48:29.391Z,72.08
2022-11-24T06:51:31.055Z,72.00
2022-11-24T06:54:33.349Z,72.12
2022-11-24T06:57:35.642Z,71.84
2022-11-24T07:00:38.458Z,71.86
2022-11-24T07:03:40.232Z,71.98
2022-11-24T07:06:42.086Z,72.01
2022-11-24T07:09:43.702Z,71.94
2022-11-24T07:12:45.238Z,72.07
2022-11-24T07:15:47.305Z,72.06
2022-11-24T07:18:50.890Z,71.91
2022-11-24T07:21:53.230Z,71.97
2022-11-24T07:24:54.888Z,72.03
2022-11-24T07:27:57.577Z,72.30
2022-11-24T07:31:03.735Z,71.98
2022-11-24T07:34:05.703Z,72.11
2022-11-24T07:37:07.223Z,72.20
2022-11-24T07:40:10.117Z,72.24
2022-11-24T07:43:15.856Z,72.25
2022-11-24T07:46:21.669Z,72.43
2022-11-24T07:49:23.272Z,72.46
2022-11-24T07:52:26.056Z,72.41
2022-11-24T07:55:27.611Z,72.38
2022-11-24T07:58:32.977Z,72.18
2022-11-24T08:01:35.071Z,72.27
2022-11-24T08:04:37.007Z,72.30
2022-11-24T08:07:38.855Z,72.25
2022-11-24T08:10:40.506Z,72.28
2022-11-24T08:13:42.245Z,72.23
2022-11-24T08:16:44.063Z,72.22
2022-11-24T08:19:45.880Z,71.96
2022-11-24T08:22:47.578Z,72.14
2022-11-24T08:25:54.175Z,72.21
2022-11-24T08:28:59.026Z,72.14
2022-11-24T08:32:00.920Z,72.08
2022-11-24T08:35:13.918Z,72.14
2022-11-24T08:38:16.717Z,72.20
2022-11-24T08:41:18.358Z,72.22
2022-11-24T08:44:19.996Z,72.20
2022-11-24T08:47:22.208Z,72.15
2022-11-24T08:50:24.831Z,72.26
2022-11-24T08:53:26.419Z,72.51
2022-11-24T08:56:30.887Z,72.19
2022-11-24T08:59:33.755Z,72.25
2022-11-24T09:02:35.453Z,72.20
2022-11-24T09:05:51.765Z,72.35
2022-11-24T09:08:54.890Z,72.33
2022-11-24T09:11:56.759Z,72.37
2022-11-24T09:14:58.418Z,72.38
2022-11-24T09:18:00.164Z,72.54
2022-11-24T09:21:15.852Z,72.29
2022-11-24T09:24:17.510Z,72.55
2022-11-24T09:27:19.259Z,72.62
2022-11-24T09:30:28.249Z,72.29
2022-11-24T09:33:31.332Z,72.41
2022-11-24T09:36:33.043Z,72.36
2022-11-24T09:39:34.977Z,72.34
2022-11-24T09:42:53.719Z,72.38
2022-11-24T09:46:17.751Z,72.30
2022-11-24T09:49:54.507Z,72.25
2022-11-24T09:53:05.399Z,72.20
2022-11-24T09:56:23.761Z,72.34
2022-11-24T09:59:26.867Z,72.40
2022-11-24T10:02:28.528Z,72.50
2022-11-24T10:05:35.454Z,72.39
2022-11-24T10:09:01.633Z,72.39
2022-11-24T10:12:12.433Z,72.19
2022-11-24T10:15:38.932Z,72.24
2022-11-24T10:19:02.393Z,72.51
2022-11-24T10:22:25.802Z,72.46
2022-11-24T10:25:45.891Z,72.47
2022-11-24T10:28:54.698Z,72.55
2022-11-24T10:31:57.271Z,72.33
2022-11-24T10:35:15.032Z,72.39
2022-11-24T10:38:41.046Z,72.40
2022-11-24T10:41:58.644Z,72.47
2022-11-24T10:45:03.532Z,72.58
2022-11-24T10:48:26.863Z,72.62
2022-11-24T10:51:49.499Z,72.33
2022-11-24T10:55:03.935Z,72.61
2022-11-24T10:58:16.580Z,72.52
2022-11-24T11:01:28.006Z,72.53
2022-11-24T11:04:33.167Z,72.62
2022-11-24T11:07:34.891Z,72.75
2022-11-24T11:10:36.592Z,72.80
2022-11-24T11:13:50.577Z,72.64
2022-11-24T11:16:54.882Z,72.62
2022-11-24T11:20:02.893Z,72.71
2022-11-24T11:23:16.228Z,72.85
2022-11-24T11:26:33.413Z,72.78
2022-11-24T11:36:20.770Z,72.49
2022-11-24T11:39:43.835Z,72.93
2022-11-24T11:43:02.428Z,72.95
2022-11-24T11:46:11.578Z,72.77
2022-11-24T11:49:13.650Z,72.93
2022-11-24T11:52:28.920Z,72.91
2022-11-24T11:55:33.480Z,73.12
2022-11-24T11:59:05.645Z,72.80
2022-11-24T12:02:24.564Z,72.96
2022-11-24T12:05:36.812Z,72.96
2022-11-24T12:09:19.203Z,72.81
2022-11-24T12:12:54.930Z,72.92
2022-11-24T12:16:06.012Z,72.87
2022-11-24T12:19:31.095Z,72.94
2022-11-24T12:22:45.270Z,73.18
2022-11-24T12:26:12.857Z,72.83
2022-11-24T12:29:22.777Z,73.23
2022-11-24T12:32:30.387Z,73.32
2022-11-24T12:35:45.057Z,73.17
2022-11-24T12:38:49.996Z,73.20
2022-11-24T12:42:19.187Z,73.20
2022-11-24T12:46:01.429Z,73.08
2022-11-24T12:49:38.257Z,73.35
2022-11-24T12:53:02.262Z,73.31
2022-11-24T12:56:09.209Z,73.34
2022-11-24T12:59:16.890Z,73.32
2022-11-24T13:02:56.612Z,73.62
2022-11-24T13:06:12.333Z,73.47
2022-11-24T13:09:14.450Z,73.35
2022-11-24T13:12:16.336Z,73.54
2022-11-24T13:15:43.409Z,73.63
2022-11-24T13:18:53.659Z,73.66
2022-11-24T13:22:07.294Z,73.70
2022-11-24T13:25:20.643Z,73.64
2022-11-24T13:29:06.059Z,73.70
2022-11-24T13:32:14.886Z,73.81
2022-11-24T13:35:16.744Z,73.63
2022-11-24T13:38:53.735Z,73.70
2022-11-24T13:42:01.474Z,73.70
2022-11-24T13:45:49.849Z,74.01
2022-11-24T13:48:58.077Z,73.81
2022-11-24T13:52:37.771Z,73.99
2022-11-24T13:55:41.304Z,73.83
2022-11-24T13:58:53.901Z,74.04
2022-11-24T14:01:57.061Z,74.11
2022-11-24T14:04:58.769Z,74.03
2022-11-24T14:08:01.229Z,74.19
2022-11-24T14:11:12.501Z,73.99
2022-11-24T14:14:20.846Z,74.11
2022-11-24T14:17:24.840Z,74.19
2022-11-24T14:20:27.800Z,74.12
2022-11-24T14:23:30.780Z,74.07
2022-11-24T14:26:33.687Z,74.12
2022-11-24T14:29:35.363Z,74.33
2022-11-24T14:32:39.658Z,74.25
2022-11-24T14:35:44.550Z,74.39
2022-11-24T14:38:48.335Z,74.30
2022-11-24T14:42:20.684Z,74.27
2022-11-24T14:45:22.338Z,74.27
2022-11-24T14:48:30.940Z,74.39
2022-11-24T14:51:36.900Z,74.38
2022-11-24T14:55:12.242Z,74.00
2022-11-24T14:58:38.978Z,74.33
2022-11-24T15:01:43.668Z,74.17
2022-11-24T15:05:05.350Z,74.34
2022-11-24T15:08:13.651Z,74.15
2022-11-24T15:11:15.493Z,74.08
2022-11-24T15:14:31.876Z,74.25
2022-11-24T15:17:33.938Z,74.13
2022-11-24T15:20:41.656Z,74.18
2022-11-24T15:24:04.334Z,74.25
2022-11-24T15:27:06.622Z,74.53
2022-11-24T15:30:11.689Z,74.28
2022-11-24T15:33:16.721Z,74.37
2022-11-24T15:36:20.088Z,74.40
2022-11-24T15:39:21.680Z,74.37
2022-11-24T15:42:23.298Z,74.47
2022-11-24T15:45:25.918Z,74.35
2022-11-24T15:48:28.572Z,74.64
2022-11-24T15:51:33.402Z,74.50
2022-11-24T15:54:35.832Z,74.36
2022-11-24T15:57:37.599Z,74.59
2022-11-24T16:00:42.777Z,74.59
2022-11-24T16:03:47.498Z,74.48
2022-11-24T16:06:49.930Z,74.58
2022-11-24T16:09:52.170Z,74.43
2022-11-24T16:12:53.786Z,74.46
2022-11-24T16:15:55.454Z,74.40
2022-11-24T16:18:57.075Z,74.46
2022-11-24T16:21:58.670Z,74.25
2022-11-24T16:25:00.272Z,74.39
2022-11-24T16:28:01.875Z,74.25
2022-11-24T16:31:03.770Z,74.28
2022-11-24T16:34:05.581Z,74.48
2022-11-24T16:37:07.207Z,74.16
2022-11-24T16:40:09.345Z,74.16
2022-11-24T16:43:10.926Z,74.40
2022-11-24T16:46:21.064Z,74.15
2022-11-24T16:49:22.987Z,74.25
2022-11-24T16:52:24.582Z,74.18
2022-11-24T16:55:26.164Z,74.23
2022-11-24T16:58:27.990Z,74.40
2022-11-24T17:01:30.005Z,74.09
2022-11-24T17:04:31.904Z,74.31
2022-11-24T17:07:33.783Z,74.07
2022-11-24T17:10:41.336Z,74.05
2022-11-24T17:13:44.893Z,74.12
2022-11-24T17:16:46.793Z,74.16
2022-11-24T17:19:48.559Z,74.20
2022-11-24T17:22:50.204Z,74.25
2022-11-24T17:25:52.019Z,74.30
2022-11-24T17:28:54.045Z,74.23
2022-11-24T17:31:55.985Z,74.41
2022-11-24T17:34:59.223Z,74.06
2022-11-24T17:38:03.704Z,74.08
2022-11-24T17:41:05.537Z,73.98
2022-11-24T17:44:08.082Z,74.03
2022-11-24T17:47:42.468Z,74.03
2022-11-24T17:50:44.065Z,74.26
2022-11-24T17:53:48.716Z,74.37
2022-11-24T17:56:50.488Z,73.95
2022-11-24T17:59:52.558Z,74.16
2022-11-24T18:02:56.151Z,74.28
2022-11-24T18:06:04.915Z,74.13
2022-11-24T18:09:06.567Z,74.19
2022-11-24T18:12:08.210Z,74.08
2022-11-24T18:15:12.978Z,73.98
2022-11-24T18:18:14.606Z,74.02
2022-11-24T18:21:16.823Z,74.42
2022-11-24T18:24:22.657Z,74.17
2022-11-24T18:27:25.887Z,74.08
2022-11-24T18:30:27.615Z,74.26
2022-11-24T18:33:29.849Z,74.20
2022-11-24T18:36:31.753Z,74.49
2022-11-24T18:39:33.411Z,74.41
2022-11-24T18:42:35.006Z,74.51
2022-11-24T18:45:37.683Z,74.38
2022-11-24T18:48:39.631Z,74.38
2022-11-24T18:51:41.292Z,74.37
2022-11-24T18:54:42.969Z,74.49
2022-11-24T18:57:44.550Z,74.57
2022-11-24T19:00:46.175Z,74.46
2022-11-24T19:03:50.303Z,74.49
2022-11-24T19:06:51.873Z,74.45
2022-11-24T19:09:53.463Z,74.52
2022-11-24T19:12:55.424Z,74.73
2022-11-24T19:15:59.659Z,74.61
2022-11-24T19:19:02.321Z,74.57
2022-11-24T19:22:03.850Z,74.50
2022-11-24T19:25:06.158Z,74.52
2022-11-24T19:28:11.862Z,74.51
2022-11-24T19:31:16.554Z,74.35
2022-11-24T19:34:18.221Z,74.50
2022-11-24T19:37:20.870Z,74.46
2022-11-24T19:40:22.490Z,74.48
2022-11-24T19:43:24.050Z,74.56
2022-11-24T19:46:27.957Z,74.51
2022-11-24T19:49:29.978Z,74.53
2022-11-24T19:52:31.656Z,74.40
2022-11-24T19:55:33.272Z,74.77
2022-11-24T19:58:35.892Z,74.63
2022-11-24T20:01:39.411Z,74.46
2022-11-24T20:04:42.335Z,74.52
2022-11-24T20:07:44.173Z,74.50
2022-11-24T20:10:45.807Z,74.34
2022-11-24T20:13:49.134Z,74.42
2022-11-24T20:16:51.118Z,74.40
2022-11-24T20:19:52.778Z,74.38
2022-11-24T20:22:54.365Z,74.32
2022-11-24T20:26:01.185Z,74.37
2022-11-24T20:29:03.695Z,74.45
2022-11-24T20:32:05.396Z,74.40
2022-11-24T20:35:07.448Z,74.49
2022-11-24T20:38:09.531Z,74.43
2022-11-24T20:41:14.256Z,74.34
2022-11-24T20:44:17.841Z,74.49
2022-11-24T20:47:19.517Z,74.29
2022-11-24T20:50:21.127Z,74.17
2022-11-24T20:53:23.051Z,74.55
2022-11-24T20:56:36.714Z,74.58
2022-11-24T20:59:38.410Z,74.36
2022-11-24T21:02:40.011Z,74.54
2022-11-24T21:05:43.898Z,74.45
2022-11-24T21:08:45.580Z,74.38
2022-11-24T21:11:47.449Z,74.50
2022-11-24T21:14:49.108Z,74.45
2022-11-24T21:17:52.088Z,74.52
2022-11-24T21:20:53.740Z,74.50
2022-11-24T21:23:55.480Z,74.18
2022-11-24T21:26:57.138Z,74.34
2022-11-24T21:29:58.878Z,74.35
2022-11-24T21:33:04.894Z,74.27
2022-11-24T21:36:07.006Z,74.49
2022-11-24T21:39:09.719Z,74.39
2022-11-24T21:42:11.506Z,74.49
2022-11-24T21:45:13.221Z,74.54
2022-11-24T21:48:14.872Z,74.34
2022-11-24T21:51:18.894Z,74.05
2022-11-24T21:54:21.333Z,74.67
2022-11-24T21:57:22.965Z,74.51
2022-11-24T22:00:24.623Z,74.32
2022-11-24T22:03:26.332Z,74.32
2022-11-24T22:06:28.073Z,74.13
2022-11-24T22:09:29.737Z,74.38
2022-11-24T22:12:31.321Z,74.19
2022-11-24T22:15:33.955Z,74.18
2022-11-24T22:18:41.846Z,73.98
2022-11-24T22:21:49.862Z,73.96
2022-11-24T22:24:51.484Z,74.21
2022-11-24T22:27:57.637Z,74.30
2022-11-24T22:31:06.823Z,74.39
2022-11-24T22:34:10.354Z,74.55
2022-11-24T22:37:11.917Z,74.26
2022-11-24T22:40:13.615Z,74.53
2022-11-24T22:43:18.917Z,74.46
2022-11-24T22:46:27.211Z,74.33
2022-11-24T22:49:30.012Z,74.51
2022-11-24T22:52:33.163Z,74.34
2022-11-24T22:55:35.278Z,74.36
2022-11-24T22:58:41.597Z,74.40
2022-11-24T23:01:43.285Z,74.63
2022-11-24T23:04:44.883Z,74.59
2022-11-24T23:07:46.564Z,74.64
2022-11-24T23:10:48.239Z,74.63
2022-11-24T23:13:54.320Z,74.48
2022-11-24T23:16:55.921Z,74.41
2022-11-24T23:19:57.457Z,74.51
2022-11-24T23:22:59.071Z,74.48
2022-11-24T23:26:02.722Z,74.59
2022-11-24T23:29:05.539Z,74.52
2022-11-24T23:32:07.152Z,74.48
2022-11-24T23:35:13.620Z,74.45
2022-11-24T23:38:15.664Z,74.49
2022-11-24T23:41:19.784Z,74.40
2022-11-24T23:44:21.466Z,74.44
2022-11-24T23:47:23.041Z,74.51
2022-11-24T23:50:24.592Z,74.54
2022-11-24T23:53:26.209Z,74.45
2022-11-24T23:56:32.063Z,74.71
2022-11-24T23:59:33.721Z,74.66
